createdAt,value
2023-03-24T00:00:20.345Z,208.00
2023-03-24T00:01:20.354Z,220.20
2023-03-24T00:02:20.340Z,220.80
2023-03-24T00:03:20.417Z,217.40
2023-03-24T00:04:20.345Z,215.70
2023-03-24T00:05:20.262Z,222.40
2023-03-24T00:06:20.279Z,210.50
2023-03-24T00:07:21.024Z,218.60
2023-03-24T00:08:20.249Z,213.10
2023-03-24T00:09:20.267Z,224.00
2023-03-24T00:10:20.214Z,224.20
2023-03-24T00:11:20.232Z,216.30
2023-03-24T00:12:20.191Z,219.10
2023-03-24T00:13:20.175Z,225.10
2023-03-24T00:14:20.197Z,230.00
2023-03-24T00:15:20.244Z,231.40
2023-03-24T00:16:20.312Z,234.00
2023-03-24T00:17:20.254Z,237.50
2023-03-24T00:18:20.135Z,231.10
2023-03-24T00:19:20.122Z,229.80
2023-03-24T00:20:20.389Z,228.40
2023-03-24T00:21:20.114Z,228.60
2023-03-24T00:22:20.086Z,236.70
2023-03-24T00:23:20.073Z,237.20
2023-03-24T00:24:20.087Z,244.40
2023-03-24T00:25:20.063Z,243.30
2023-03-24T00:26:20.105Z,245.70
2023-03-24T00:27:20.027Z,245.90
2023-03-24T00:28:20.019Z,235.00
2023-03-24T00:29:20.012Z,243.50
2023-03-24T00:30:20.015Z,243.60
2023-03-24T00:31:20.131Z,239.40
2023-03-24T00:32:20.004Z,244.60
2023-03-24T00:33:19.984Z,243.20
2023-03-24T00:34:19.971Z,246.00
2023-03-24T00:35:19.960Z,249.10
2023-03-24T00:36:20.013Z,248.90
2023-03-24T00:37:19.939Z,245.10
2023-03-24T00:38:19.935Z,245.70
2023-03-24T00:39:19.945Z,250.10
2023-03-24T00:40:19.912Z,245.30
2023-03-24T00:41:20.285Z,247.90
2023-03-24T00:42:19.895Z,254.30
2023-03-24T00:43:19.888Z,251.50
2023-03-24T00:44:19.876Z,252.50
2023-03-24T00:45:20.595Z,241.90
2023-03-24T00:46:19.918Z,245.60
2023-03-24T00:47:19.822Z,252.10
2023-03-24T00:48:19.817Z,249.10
2023-03-24T00:49:19.804Z,250.00
2023-03-24T00:50:19.838Z,250.70
2023-03-24T00:51:19.822Z,247.20
2023-03-24T00:52:19.777Z,242.70
2023-03-24T00:53:19.764Z,242.30
2023-03-24T00:54:19.750Z,243.60
2023-03-24T00:55:19.758Z,251.40
2023-03-24T00:56:19.758Z,259.40
2023-03-24T00:57:19.724Z,254.20
2023-03-24T00:58:19.748Z,253.50
2023-03-24T00:59:19.696Z,245.40
2023-03-24T01:00:19.706Z,244.00
2023-03-24T01:01:19.745Z,243.90
2023-03-24T01:02:19.715Z,246.10
2023-03-24T01:03:19.693Z,244.30
2023-03-24T01:04:19.655Z,254.80
2023-03-24T01:05:19.635Z,253.70
2023-03-24T01:06:19.632Z,254.30
2023-03-24T01:07:19.638Z,266.20
2023-03-24T01:08:19.628Z,268.10
2023-03-24T01:09:19.584Z,272.20
2023-03-24T01:10:19.588Z,275.30
2023-03-24T01:11:19.570Z,275.70
2023-03-24T01:12:19.615Z,273.90
2023-03-24T01:13:19.548Z,272.40
2023-03-24T01:14:19.568Z,271.20
2023-03-24T01:15:19.527Z,272.10
2023-03-24T01:16:19.536Z,271.60
2023-03-24T01:17:19.567Z,275.90
2023-03-24T01:18:19.498Z,280.10
2023-03-24T01:19:19.480Z,285.30
2023-03-24T01:20:19.503Z,285.70
2023-03-24T01:21:19.463Z,284.60
2023-03-24T01:22:19.477Z,284.90
2023-03-24T01:23:19.455Z,283.20
2023-03-24T01:24:19.431Z,282.30
2023-03-24T01:25:19.428Z,283.70
2023-03-24T01:26:19.414Z,283.10
2023-03-24T01:27:19.443Z,281.60
2023-03-24T01:28:19.402Z,282.20
2023-03-24T01:29:19.375Z,280.00
2023-03-24T01:30:19.371Z,281.00
2023-03-24T01:31:19.391Z,278.60
2023-03-24T01:32:19.375Z,278.60
2023-03-24T01:33:19.348Z,281.20
2023-03-24T01:34:19.326Z,279.70
2023-03-24T01:35:19.321Z,277.60
2023-03-24T01:36:19.332Z,274.60
2023-03-24T01:37:19.313Z,282.10
2023-03-24T01:38:19.282Z,278.30
2023-03-24T01:39:19.280Z,275.30
2023-03-24T01:40:19.281Z,283.70
2023-03-24T01:41:19.261Z,280.80
2023-03-24T01:42:19.273Z,282.00
2023-03-24T01:43:19.272Z,272.90
2023-03-24T01:44:19.233Z,274.00
2023-03-24T01:45:19.266Z,270.20
2023-03-24T01:46:19.299Z,271.60
2023-03-24T01:47:19.240Z,272.80
2023-03-24T01:48:19.179Z,278.90
2023-03-24T01:49:19.184Z,278.40
2023-03-24T01:50:19.155Z,272.20
2023-03-24T01:51:19.176Z,275.50
2023-03-24T01:52:19.169Z,270.00
2023-03-24T01:53:19.155Z,281.90
2023-03-24T01:54:19.139Z,279.40
2023-03-24T01:55:19.118Z,277.60
2023-03-24T01:56:19.098Z,278.70
2023-03-24T01:57:26.666Z,278.50
2023-03-24T01:58:19.081Z,276.10
2023-03-24T01:59:25.563Z,272.30
2023-03-24T02:00:25.547Z,274.00
2023-03-24T02:01:19.149Z,275.90
2023-03-24T02:02:19.049Z,277.00
2023-03-24T02:03:19.021Z,275.30
2023-03-24T02:04:19.054Z,274.00
2023-03-24T02:05:19.006Z,274.90
2023-03-24T02:06:18.993Z,271.80
2023-03-24T02:07:19.015Z,268.70
2023-03-24T02:08:18.983Z,269.50
2023-03-24T02:09:18.962Z,271.50
2023-03-24T02:10:22.650Z,275.70
2023-03-24T02:11:18.961Z,283.20
2023-03-24T02:12:18.930Z,284.90
2023-03-24T02:13:18.974Z,277.50
2023-03-24T02:14:18.901Z,279.70
2023-03-24T02:15:18.892Z,279.60
2023-03-24T02:16:18.931Z,275.80
2023-03-24T02:17:18.893Z,279.70
2023-03-24T02:18:18.893Z,272.90
2023-03-24T02:19:18.852Z,274.60
2023-03-24T02:20:18.946Z,276.70
2023-03-24T02:21:18.831Z,274.20
2023-03-24T02:22:18.825Z,275.40
2023-03-24T02:23:18.847Z,283.20
2023-03-24T02:24:18.802Z,281.60
2023-03-24T02:25:18.931Z,286.00
2023-03-24T02:26:18.791Z,283.10
2023-03-24T02:27:18.774Z,281.00
2023-03-24T02:28:18.795Z,283.60
2023-03-24T02:29:18.753Z,285.40
2023-03-24T02:30:18.739Z,287.00
2023-03-24T02:31:18.795Z,288.40
2023-03-24T02:32:18.722Z,286.90
2023-03-24T02:33:18.761Z,280.80
2023-03-24T02:34:18.696Z,281.50
2023-03-24T02:35:18.695Z,286.40
2023-03-24T02:36:18.787Z,274.20
2023-03-24T02:37:18.679Z,273.90
2023-03-24T02:38:18.675Z,279.40
2023-03-24T02:39:18.663Z,280.10
2023-03-24T02:40:18.625Z,277.90
2023-03-24T02:41:18.629Z,276.50
2023-03-24T02:42:18.628Z,277.00
2023-03-24T02:43:18.636Z,280.00
2023-03-24T02:44:18.601Z,276.40
2023-03-24T02:45:18.589Z,279.00
2023-03-24T02:46:18.656Z,282.70
2023-03-24T02:47:18.564Z,281.70
2023-03-24T02:48:18.571Z,279.40
2023-03-24T02:49:18.542Z,277.80
2023-03-24T02:50:18.558Z,273.00
2023-03-24T02:51:18.534Z,280.60
2023-03-24T02:52:18.506Z,276.70
2023-03-24T02:53:18.559Z,281.90
2023-03-24T02:54:18.501Z,284.00
2023-03-24T02:55:18.471Z,283.80
2023-03-24T02:56:18.456Z,275.90
2023-03-24T02:57:18.465Z,283.30
2023-03-24T02:58:18.471Z,274.90
2023-03-24T02:59:18.457Z,272.00
2023-03-24T03:00:18.524Z,273.80
2023-03-24T03:01:18.529Z,276.90
2023-03-24T03:02:18.401Z,275.10
2023-03-24T03:03:18.477Z,278.40
2023-03-24T03:04:18.416Z,275.70
2023-03-24T03:05:18.372Z,278.10
2023-03-24T03:06:18.363Z,277.10
2023-03-24T03:07:18.347Z,277.50
2023-03-24T03:08:19.904Z,279.30
2023-03-24T03:09:18.346Z,273.00
2023-03-24T03:10:18.316Z,290.40
2023-03-24T03:11:18.314Z,292.10
2023-03-24T03:12:18.325Z,284.50
2023-03-24T03:13:21.277Z,291.70
2023-03-24T03:14:20.290Z,293.00
2023-03-24T03:15:19.827Z,294.80
2023-03-24T03:16:18.279Z,296.30
2023-03-24T03:17:18.241Z,295.40
2023-03-24T03:18:18.256Z,295.00
2023-03-24T03:19:18.241Z,297.60
2023-03-24T03:20:18.218Z,296.40
2023-03-24T03:21:18.235Z,297.50
2023-03-24T03:22:18.195Z,294.40
2023-03-24T03:23:18.215Z,289.80
2023-03-24T03:24:18.163Z,289.00
2023-03-24T03:25:18.158Z,285.90
2023-03-24T03:26:18.143Z,288.80
2023-03-24T03:27:18.141Z,282.80
2023-03-24T03:28:18.178Z,287.80
2023-03-24T03:29:18.127Z,294.70
2023-03-24T03:30:18.118Z,290.60
2023-03-24T03:31:18.138Z,292.60
2023-03-24T03:32:18.090Z,291.00
2023-03-24T03:33:18.136Z,285.70
2023-03-24T03:34:24.571Z,287.20
2023-03-24T03:35:24.563Z,284.10
2023-03-24T03:36:18.088Z,281.10
2023-03-24T03:37:18.034Z,284.50
2023-03-24T03:38:18.065Z,284.70
2023-03-24T03:39:18.021Z,289.10
2023-03-24T03:40:18.016Z,289.30
2023-03-24T03:41:17.990Z,294.70
2023-03-24T03:42:18.008Z,291.60
2023-03-24T03:43:18.000Z,294.20
2023-03-24T03:44:17.968Z,294.50
2023-03-24T03:45:17.963Z,290.60
2023-03-24T03:46:17.983Z,290.50
2023-03-24T03:47:17.937Z,286.80
2023-03-24T03:48:17.985Z,285.00
2023-03-24T03:49:17.944Z,280.80
2023-03-24T03:50:17.912Z,284.10
2023-03-24T03:51:17.892Z,283.40
2023-03-24T03:52:17.897Z,281.90
2023-03-24T03:53:17.917Z,283.60
2023-03-24T03:54:17.873Z,279.50
2023-03-24T03:55:17.885Z,275.70
2023-03-24T03:56:17.839Z,276.90
2023-03-24T03:57:17.831Z,277.00
2023-03-24T03:58:17.864Z,275.40
2023-03-24T03:59:17.810Z,277.50
2023-03-24T04:00:17.808Z,275.60
2023-03-24T04:01:17.780Z,275.10
2023-03-24T04:02:17.828Z,287.50
2023-03-24T04:03:17.924Z,287.80
2023-03-24T04:04:17.794Z,285.30
2023-03-24T04:05:17.743Z,282.80
2023-03-24T04:06:17.736Z,285.20
2023-03-24T04:07:17.716Z,286.80
2023-03-24T04:08:17.718Z,287.20
2023-03-24T04:09:17.751Z,285.70
2023-03-24T04:10:17.730Z,286.30
2023-03-24T04:11:17.681Z,286.30
2023-03-24T04:12:17.672Z,290.40
2023-03-24T04:13:17.663Z,291.50
2023-03-24T04:14:17.682Z,288.90
2023-03-24T04:15:17.653Z,289.80
2023-03-24T04:16:17.653Z,286.50
2023-03-24T04:17:17.614Z,288.40
2023-03-24T04:18:17.609Z,288.00
2023-03-24T04:19:17.618Z,287.00
2023-03-24T04:20:17.585Z,285.30
2023-03-24T04:21:17.601Z,287.60
2023-03-24T04:22:17.589Z,276.80
2023-03-24T04:23:17.555Z,278.70
2023-03-24T04:24:17.568Z,279.60
2023-03-24T04:25:17.529Z,280.50
2023-03-24T04:26:17.522Z,274.60
2023-03-24T04:27:17.532Z,275.70
2023-03-24T04:28:17.548Z,272.60
2023-03-24T04:29:17.516Z,272.80
2023-03-24T04:30:17.499Z,269.80
2023-03-24T04:31:17.498Z,268.20
2023-03-24T04:32:17.460Z,266.00
2023-03-24T04:33:17.446Z,264.70
2023-03-24T04:34:17.476Z,258.60
2023-03-24T04:35:17.562Z,258.10
2023-03-24T04:36:18.319Z,253.30
2023-03-24T04:37:17.409Z,238.40
2023-03-24T04:38:17.474Z,238.10
2023-03-24T04:39:17.400Z,226.30
2023-03-24T04:40:17.383Z,231.20
2023-03-24T04:41:18.256Z,224.80
2023-03-24T04:42:17.365Z,221.70
2023-03-24T04:43:17.357Z,225.40
2023-03-24T04:44:17.367Z,225.70
2023-03-24T04:45:17.344Z,222.80
2023-03-24T04:46:17.346Z,223.10
2023-03-24T04:47:17.297Z,228.70
2023-03-24T04:48:17.296Z,217.70
2023-03-24T04:49:17.298Z,217.80
2023-03-24T04:50:17.278Z,222.10
2023-03-24T04:51:17.266Z,210.50
2023-03-24T04:52:18.076Z,203.20
2023-03-24T04:53:17.238Z,206.50
2023-03-24T04:54:17.449Z,197.70
2023-03-24T04:55:17.585Z,201.40
2023-03-24T04:56:17.202Z,194.30
2023-03-24T04:57:17.183Z,195.90
2023-03-24T04:58:17.184Z,205.20
2023-03-24T04:59:17.202Z,206.70
2023-03-24T05:00:17.163Z,215.70
2023-03-24T05:01:17.342Z,186.60
2023-03-24T05:02:17.175Z,163.50
2023-03-24T05:03:17.241Z,155.90
2023-03-24T05:04:17.174Z,144.50
2023-03-24T05:05:17.041Z,131.60
2023-03-24T05:06:17.069Z,107.00
2023-03-24T05:07:17.042Z,101.60
2023-03-24T05:08:17.026Z,95.80
2023-03-24T05:09:17.046Z,80.80
2023-03-24T05:10:17.018Z,73.20
2023-03-24T05:11:16.975Z,69.90
2023-03-24T05:12:16.972Z,66.70
2023-03-24T05:13:16.966Z,66.80
2023-03-24T05:14:16.982Z,71.80
2023-03-24T05:15:20.140Z,75.50
2023-03-24T05:16:16.977Z,64.50
2023-03-24T05:17:16.931Z,73.10
2023-03-24T05:18:16.906Z,82.10
2023-03-24T05:19:17.115Z,75.70
2023-03-24T05:20:16.892Z,77.20
2023-03-24T05:21:16.877Z,73.80
2023-03-24T05:22:16.866Z,80.50
2023-03-24T05:23:16.852Z,83.50
2023-03-24T05:24:16.848Z,90.80
2023-03-24T05:25:16.872Z,90.50
2023-03-24T05:26:16.844Z,80.80
2023-03-24T05:27:16.826Z,89.20
2023-03-24T05:28:16.808Z,94.20
2023-03-24T05:29:16.791Z,91.50
2023-03-24T05:30:16.808Z,99.20
2023-03-24T05:31:16.805Z,96.10
2023-03-24T05:32:16.762Z,109.60
2023-03-24T05:33:16.749Z,116.10
2023-03-24T05:34:16.793Z,125.10
2023-03-24T05:35:16.765Z,129.10
2023-03-24T05:36:16.785Z,121.70
2023-03-24T05:37:16.712Z,129.60
2023-03-24T05:38:16.712Z,123.60
2023-03-24T05:39:16.694Z,122.60
2023-03-24T05:40:16.734Z,120.60
2023-03-24T05:41:16.669Z,108.60
2023-03-24T05:42:16.662Z,105.80
2023-03-24T05:43:16.693Z,105.50
2023-03-24T05:44:16.652Z,94.60
2023-03-24T05:45:16.658Z,93.50
2023-03-24T05:46:16.642Z,98.50
2023-03-24T05:47:16.668Z,88.60
2023-03-24T05:48:16.591Z,76.80
2023-03-24T05:49:16.584Z,80.00
2023-03-24T05:50:16.605Z,79.40
2023-03-24T05:51:16.580Z,84.50
2023-03-24T05:52:16.617Z,94.90
2023-03-24T05:53:16.543Z,94.70
2023-03-24T05:54:16.546Z,85.90
2023-03-24T05:55:16.545Z,91.20
2023-03-24T05:56:16.542Z,103.10
2023-03-24T05:57:16.547Z,89.20
2023-03-24T05:58:16.510Z,92.30
2023-03-24T05:59:16.483Z,106.30
2023-03-24T06:00:16.494Z,103.70
2023-03-24T06:01:16.458Z,104.00
2023-03-24T06:02:16.515Z,117.60
2023-03-24T06:03:16.700Z,121.20
2023-03-24T06:04:16.460Z,109.10
2023-03-24T06:05:16.461Z,113.40
2023-03-24T06:06:16.468Z,113.90
2023-03-24T06:07:22.889Z,118.20
2023-03-24T06:08:16.378Z,120.10
2023-03-24T06:09:16.371Z,116.40
2023-03-24T06:10:16.388Z,114.70
2023-03-24T06:11:16.356Z,113.30
2023-03-24T06:12:16.419Z,112.30
2023-03-24T06:13:16.334Z,109.90
2023-03-24T06:14:16.318Z,106.40
2023-03-24T06:15:16.336Z,103.90
2023-03-24T06:16:16.381Z,85.20
2023-03-24T06:17:16.290Z,92.90
2023-03-24T06:18:16.284Z,71.50
2023-03-24T06:19:16.296Z,69.10
2023-03-24T06:20:16.338Z,75.10
2023-03-24T06:21:16.264Z,67.40
2023-03-24T06:22:16.234Z,69.60
2023-03-24T06:23:16.237Z,70.00
2023-03-24T06:24:16.223Z,54.70
2023-03-24T06:25:16.231Z,55.30
2023-03-24T06:26:16.193Z,56.80
2023-03-24T06:27:16.191Z,54.20
2023-03-24T06:28:16.205Z,47.50
2023-03-24T06:29:16.168Z,47.30
2023-03-24T06:30:16.189Z,51.40
2023-03-24T06:31:16.211Z,53.00
2023-03-24T06:32:16.133Z,53.40
2023-03-24T06:33:16.158Z,55.00
2023-03-24T06:34:16.116Z,55.10
2023-03-24T06:35:16.144Z,52.30
2023-03-24T06:36:16.122Z,51.50
2023-03-24T06:37:16.087Z,54.40
2023-03-24T06:38:16.072Z,55.30
2023-03-24T06:39:16.072Z,59.90
2023-03-24T06:40:16.071Z,59.50
2023-03-24T06:41:16.043Z,62.20
2023-03-24T06:42:16.033Z,55.70
2023-03-24T06:43:16.036Z,50.60
2023-03-24T06:44:16.008Z,51.20
2023-03-24T06:45:16.035Z,41.20
2023-03-24T06:46:16.055Z,46.20
2023-03-24T06:47:15.996Z,45.20
2023-03-24T06:48:15.966Z,47.50
2023-03-24T06:49:15.988Z,42.80
2023-03-24T06:50:15.971Z,41.20
2023-03-24T06:51:15.969Z,41.10
2023-03-24T06:52:15.927Z,35.80
2023-03-24T06:53:15.925Z,29.30
2023-03-24T06:54:15.919Z,26.60
2023-03-24T06:55:15.939Z,28.20
2023-03-24T06:56:15.882Z,29.60
2023-03-24T06:57:15.924Z,24.30
2023-03-24T06:58:15.876Z,17.70
2023-03-24T06:59:15.860Z,18.80
2023-03-24T07:00:15.841Z,15.60
2023-03-24T07:01:15.923Z,17.40
2023-03-24T07:02:15.825Z,14.40
2023-03-24T07:03:15.980Z,15.00
2023-03-24T07:04:15.798Z,13.30
2023-03-24T07:05:15.803Z,13.60
2023-03-24T07:06:15.820Z,14.30
2023-03-24T07:07:44.883Z,15.10
2023-03-24T07:08:36.657Z,16.40
2023-03-24T07:09:15.748Z,15.00
2023-03-24T07:10:15.735Z,12.30
2023-03-24T07:11:15.756Z,12.70
2023-03-24T07:12:15.721Z,12.10
2023-03-24T07:13:15.726Z,12.10
2023-03-24T07:14:15.697Z,12.30
2023-03-24T07:15:15.686Z,14.70
2023-03-24T07:16:15.767Z,16.30
2023-03-24T07:17:15.671Z,12.20
2023-03-24T07:18:15.726Z,9.10
2023-03-24T07:19:15.659Z,9.90
2023-03-24T07:20:15.638Z,7.40
2023-03-24T07:21:15.661Z,5.80
2023-03-24T07:22:15.623Z,5.60
2023-03-24T07:23:15.604Z,4.20
2023-03-24T07:24:15.609Z,4.50
2023-03-24T07:25:15.589Z,5.40
2023-03-24T07:26:15.619Z,5.90
2023-03-24T07:27:15.564Z,7.00
2023-03-24T07:28:15.574Z,6.70
2023-03-24T07:29:15.534Z,4.60
2023-03-24T07:30:15.540Z,1.70
2023-03-24T07:31:15.583Z,1.70
2023-03-24T07:32:15.512Z,1.80
2023-03-24T07:33:15.490Z,1.90
2023-03-24T07:34:15.491Z,1.20
2023-03-24T07:35:15.479Z,1.20
2023-03-24T07:36:15.506Z,0.80
2023-03-24T07:37:15.460Z,1.40
2023-03-24T07:38:15.444Z,1.40
2023-03-24T07:39:15.432Z,1.20
2023-03-24T07:40:15.430Z,1.10
2023-03-24T07:41:15.439Z,1.00
2023-03-24T07:42:15.392Z,1.30
2023-03-24T07:43:15.405Z,0.90
2023-03-24T07:44:15.372Z,1.40
2023-03-24T07:45:15.382Z,1.10
2023-03-24T07:46:15.410Z,1.00
2023-03-24T07:47:15.480Z,1.30
2023-03-24T07:48:15.354Z,1.10
2023-03-24T07:49:19.442Z,1.30
2023-03-24T07:50:15.351Z,1.50
2023-03-24T07:51:15.345Z,1.10
2023-03-24T07:52:15.336Z,1.00
2023-03-24T07:53:15.284Z,1.50
2023-03-24T07:54:15.268Z,0.90
2023-03-24T07:55:15.457Z,1.00
2023-03-24T07:56:15.302Z,1.20
2023-03-24T07:57:15.298Z,1.10
2023-03-24T07:58:15.241Z,0.90
2023-03-24T07:59:15.378Z,1.40
2023-03-24T08:00:15.205Z,1.10
2023-03-24T08:01:15.230Z,0.80
2023-03-24T08:02:15.210Z,1.30
2023-03-24T08:03:21.317Z,0.90
2023-03-24T08:04:15.250Z,0.90
2023-03-24T08:05:15.154Z,1.10
2023-03-24T08:06:15.191Z,0.90
2023-03-24T08:07:15.135Z,1.00
2023-03-24T08:08:15.297Z,1.00
2023-03-24T08:09:15.122Z,1.30
2023-03-24T08:10:15.114Z,0.80
2023-03-24T08:11:15.099Z,1.20
2023-03-24T08:12:20.415Z,0.70
2023-03-24T08:13:15.131Z,1.00
2023-03-24T08:14:15.065Z,1.30
2023-03-24T08:15:15.051Z,1.20
2023-03-24T08:16:15.082Z,1.10
2023-03-24T08:17:15.053Z,1.00
2023-03-24T08:18:15.015Z,0.80
2023-03-24T08:19:15.027Z,0.70
2023-03-24T08:20:15.240Z,1.00
2023-03-24T08:21:14.993Z,0.90
2023-03-24T08:22:15.001Z,1.30
2023-03-24T08:23:14.971Z,1.20
2023-03-24T08:24:14.967Z,1.60
2023-03-24T08:25:21.441Z,1.30
2023-03-24T08:26:14.928Z,1.50
2023-03-24T08:27:23.762Z,1.10
2023-03-24T08:28:20.911Z,1.00
2023-03-24T08:29:21.392Z,0.70
2023-03-24T08:30:21.369Z,1.10
2023-03-24T08:31:14.914Z,0.90
2023-03-24T08:32:14.890Z,1.30
2023-03-24T08:33:14.975Z,1.40
2023-03-24T08:34:14.841Z,0.80
2023-03-24T08:35:14.844Z,1.10
2023-03-24T08:36:14.915Z,0.50
2023-03-24T08:37:14.854Z,0.90
2023-03-24T08:38:16.830Z,0.90
2023-03-24T08:39:14.813Z,0.70
2023-03-24T08:40:14.779Z,0.60
2023-03-24T08:41:14.791Z,0.90
2023-03-24T08:42:14.806Z,1.20
2023-03-24T08:43:14.811Z,1.00
2023-03-24T08:44:14.761Z,1.20
2023-03-24T08:45:14.759Z,1.10
2023-03-24T08:46:14.786Z,1.00
2023-03-24T08:47:14.761Z,1.10
2023-03-24T08:48:14.741Z,0.80
2023-03-24T08:49:14.690Z,1.00
2023-03-24T08:50:14.677Z,1.90
2023-03-24T08:51:14.692Z,1.40
2023-03-24T08:52:14.671Z,0.70
2023-03-24T08:53:14.652Z,0.80
2023-03-24T08:54:14.678Z,0.60
2023-03-24T08:55:14.621Z,0.90
2023-03-24T08:56:14.620Z,1.10
2023-03-24T08:57:14.624Z,0.90
2023-03-24T08:58:14.588Z,0.90
2023-03-24T08:59:14.610Z,0.80
2023-03-24T09:00:14.563Z,1.00
2023-03-24T09:01:14.596Z,1.30
2023-03-24T09:02:14.600Z,1.00
2023-03-24T09:03:14.614Z,1.10
2023-03-24T09:04:14.593Z,1.30
2023-03-24T09:05:14.523Z,1.30
2023-03-24T09:06:14.498Z,0.80
2023-03-24T09:07:14.537Z,0.60
2023-03-24T09:08:14.494Z,0.80
2023-03-24T09:09:14.515Z,0.70
2023-03-24T09:10:14.469Z,1.00
2023-03-24T09:11:14.525Z,1.10
2023-03-24T09:12:14.468Z,0.90
2023-03-24T09:13:14.447Z,0.90
2023-03-24T09:14:14.421Z,0.80
2023-03-24T09:15:14.404Z,0.90
2023-03-24T09:16:14.465Z,1.10
2023-03-24T09:17:14.408Z,0.40
2023-03-24T09:18:14.367Z,1.10
2023-03-24T09:19:14.364Z,0.80
2023-03-24T09:20:14.352Z,0.50
2023-03-24T09:21:14.350Z,0.90
2023-03-24T09:22:14.363Z,1.10
2023-03-24T09:23:14.338Z,1.10
2023-03-24T09:24:14.328Z,0.90
2023-03-24T09:25:14.317Z,0.70
2023-03-24T09:26:14.291Z,0.70
2023-03-24T09:27:14.320Z,0.80
2023-03-24T09:28:14.274Z,0.70
2023-03-24T09:29:14.266Z,0.70
2023-03-24T09:30:14.267Z,0.70
2023-03-24T09:31:14.268Z,0.70
2023-03-24T09:32:14.262Z,0.50
2023-03-24T09:33:14.218Z,0.80
2023-03-24T09:34:14.193Z,0.90
2023-03-24T09:35:14.220Z,0.80
2023-03-24T09:36:14.229Z,0.60
2023-03-24T09:37:14.214Z,1.00
2023-03-24T09:38:14.228Z,0.80
2023-03-24T09:39:14.173Z,1.00
2023-03-24T09:40:14.147Z,0.70
2023-03-24T09:41:14.141Z,0.90
2023-03-24T09:42:14.124Z,0.50
2023-03-24T09:43:14.145Z,0.60
2023-03-24T09:44:14.122Z,0.70
2023-03-24T09:45:14.103Z,0.40
2023-03-24T09:46:14.147Z,0.40
2023-03-24T09:47:14.109Z,0.90
2023-03-24T09:48:14.138Z,0.60
2023-03-24T09:49:14.043Z,0.80
2023-03-24T09:50:14.048Z,0.70
2023-03-24T09:51:14.033Z,0.60
2023-03-24T09:52:14.027Z,0.80
2023-03-24T09:53:14.044Z,1.00
2023-03-24T09:54:14.001Z,0.50
2023-03-24T09:55:13.978Z,0.90
2023-03-24T09:56:13.974Z,1.20
2023-03-24T09:57:14.013Z,0.90
2023-03-24T09:58:13.973Z,0.70
2023-03-24T09:59:13.957Z,0.50
2023-03-24T10:00:13.945Z,0.30
2023-03-24T10:01:13.963Z,0.80
2023-03-24T10:02:13.911Z,0.70
2023-03-24T10:03:14.062Z,0.40
2023-03-24T10:04:13.980Z,0.90
2023-03-24T10:05:13.905Z,0.40
2023-03-24T10:06:13.879Z,0.40
2023-03-24T10:07:13.861Z,0.90
2023-03-24T10:08:13.903Z,0.60
2023-03-24T10:09:13.895Z,0.70
2023-03-24T10:10:13.829Z,0.60
2023-03-24T10:11:13.820Z,1.10
2023-03-24T10:12:13.829Z,0.50
2023-03-24T10:13:13.823Z,0.80
2023-03-24T10:14:13.803Z,0.60
2023-03-24T10:15:16.165Z,0.70
2023-03-24T10:16:13.796Z,0.80
2023-03-24T10:17:13.763Z,0.60
2023-03-24T10:18:13.800Z,0.70
2023-03-24T10:19:13.746Z,0.80
2023-03-24T10:20:13.754Z,1.20
2023-03-24T10:21:13.730Z,0.70
2023-03-24T10:22:13.709Z,0.80
2023-03-24T10:23:13.724Z,0.70
2023-03-24T10:24:13.700Z,0.50
2023-03-24T10:25:13.767Z,0.80
2023-03-24T10:26:13.689Z,0.90
2023-03-24T10:27:13.646Z,0.50
2023-03-24T10:28:13.670Z,0.60
2023-03-24T10:29:13.625Z,0.80
2023-03-24T10:30:13.629Z,0.90
2023-03-24T10:31:13.744Z,0.60
2023-03-24T10:32:13.642Z,0.90
2023-03-24T10:33:13.606Z,1.50
2023-03-24T10:34:13.670Z,0.70
2023-03-24T10:35:13.648Z,0.80
2023-03-24T10:36:13.596Z,0.90
2023-03-24T10:37:13.569Z,0.60
2023-03-24T10:38:13.543Z,0.50
2023-03-24T10:39:19.054Z,0.70
2023-03-24T10:40:13.545Z,0.70
2023-03-24T10:41:13.501Z,0.80
2023-03-24T10:42:13.497Z,0.40
2023-03-24T10:43:13.489Z,0.80
2023-03-24T10:44:13.518Z,0.50
2023-03-24T10:45:13.462Z,0.80
2023-03-24T10:46:13.515Z,0.70
2023-03-24T10:47:13.437Z,0.70
2023-03-24T10:48:13.486Z,0.50
2023-03-24T10:49:13.444Z,0.60
2023-03-24T10:50:15.891Z,0.60
2023-03-24T10:51:13.391Z,0.70
2023-03-24T10:52:13.382Z,0.60
2023-03-24T10:53:13.376Z,1.10
2023-03-24T10:54:13.405Z,0.60
2023-03-24T10:55:13.371Z,0.60
2023-03-24T10:56:13.357Z,0.80
2023-03-24T10:57:13.408Z,0.80
2023-03-24T10:58:13.329Z,0.60
2023-03-24T10:59:13.347Z,0.40
2023-03-24T11:00:13.301Z,0.50
2023-03-24T11:01:13.403Z,0.80
2023-03-24T11:02:13.311Z,0.50
2023-03-24T11:03:13.397Z,0.50
2023-03-24T11:04:13.283Z,0.60
2023-03-24T11:05:13.262Z,0.50
2023-03-24T11:06:13.254Z,0.90
2023-03-24T11:07:13.228Z,0.70
2023-03-24T11:08:13.230Z,1.10
2023-03-24T11:09:13.223Z,0.60
2023-03-24T11:10:13.229Z,1.10
2023-03-24T11:11:13.208Z,0.80
2023-03-24T11:12:13.206Z,0.70
2023-03-24T11:13:13.170Z,0.50
2023-03-24T11:14:13.201Z,0.60
2023-03-24T11:15:20.196Z,0.70
2023-03-24T11:16:13.193Z,0.90
2023-03-24T11:17:13.129Z,0.80
2023-03-24T11:18:13.127Z,0.80
2023-03-24T11:19:13.780Z,0.70
2023-03-24T11:20:13.092Z,0.80
2023-03-24T11:21:13.069Z,0.60
2023-03-24T11:22:13.066Z,1.20
2023-03-24T11:23:13.081Z,0.50
2023-03-24T11:24:13.105Z,0.70
2023-03-24T11:25:13.035Z,0.60
2023-03-24T11:26:13.040Z,1.00
2023-03-24T11:27:13.009Z,1.50
2023-03-24T11:28:13.016Z,2.30
2023-03-24T11:29:13.012Z,1.70
2023-03-24T11:30:12.993Z,2.10
2023-03-24T11:31:13.001Z,4.00
2023-03-24T11:32:12.974Z,5.80
2023-03-24T11:33:12.966Z,14.30
2023-03-24T11:34:12.965Z,10.90
2023-03-24T11:35:12.956Z,9.60
2023-03-24T11:36:13.208Z,7.70
2023-03-24T11:37:12.903Z,5.30
2023-03-24T11:38:12.918Z,8.20
2023-03-24T11:39:12.913Z,7.60
2023-03-24T11:40:12.934Z,7.10
2023-03-24T11:41:12.861Z,8.10
2023-03-24T11:42:12.861Z,3.40
2023-03-24T11:43:12.836Z,5.40
2023-03-24T11:44:12.852Z,4.50
2023-03-24T11:45:12.831Z,5.80
2023-03-24T11:46:12.866Z,8.40
2023-03-24T11:47:12.818Z,9.30
2023-03-24T11:48:12.865Z,15.70
2023-03-24T11:49:12.804Z,11.00
2023-03-24T11:50:12.831Z,6.30
2023-03-24T11:51:12.857Z,5.30
2023-03-24T11:52:12.756Z,5.40
2023-03-24T11:53:12.762Z,3.80
2023-03-24T11:54:12.744Z,2.90
2023-03-24T11:55:12.782Z,4.10
2023-03-24T11:56:12.704Z,5.30
2023-03-24T11:57:12.729Z,7.80
2023-03-24T11:58:12.701Z,4.40
2023-03-24T11:59:12.687Z,12.20
2023-03-24T12:00:12.695Z,15.90
2023-03-24T12:01:12.675Z,13.00
2023-03-24T12:02:12.650Z,4.30
2023-03-24T12:03:12.788Z,4.10
2023-03-24T12:04:12.659Z,5.10
2023-03-24T12:05:12.645Z,4.00
2023-03-24T12:06:12.711Z,5.90
2023-03-24T12:07:12.597Z,5.80
2023-03-24T12:08:12.593Z,9.00
2023-03-24T12:09:12.604Z,1.70
2023-03-24T12:10:12.598Z,3.30
2023-03-24T12:11:12.563Z,5.10
2023-03-24T12:12:12.542Z,7.50
2023-03-24T12:13:18.928Z,8.50
2023-03-24T12:14:12.536Z,3.70
2023-03-24T12:15:26.629Z,2.30
2023-03-24T12:16:12.580Z,3.40
2023-03-24T12:17:12.478Z,3.50
2023-03-24T12:18:12.473Z,2.80
2023-03-24T12:19:12.459Z,3.10
2023-03-24T12:20:12.505Z,2.50
2023-03-24T12:21:12.449Z,5.70
2023-03-24T12:22:12.439Z,3.80
2023-03-24T12:23:12.419Z,2.20
2023-03-24T12:24:12.451Z,3.30
2023-03-24T12:25:12.426Z,4.10
2023-03-24T12:26:12.395Z,1.80
2023-03-24T12:27:12.394Z,2.00
2023-03-24T12:28:12.401Z,1.70
2023-03-24T12:29:12.357Z,2.00
2023-03-24T12:30:12.384Z,1.90
2023-03-24T12:31:12.352Z,1.60
2023-03-24T12:32:12.323Z,1.50
2023-03-24T12:33:12.332Z,1.50
2023-03-24T12:34:12.321Z,1.60
2023-03-24T12:35:12.312Z,1.80
2023-03-24T12:36:12.362Z,1.60
2023-03-24T12:37:12.266Z,1.30
2023-03-24T12:38:12.267Z,1.00
2023-03-24T12:39:12.279Z,0.80
2023-03-24T12:40:12.330Z,0.90
2023-03-24T12:41:12.246Z,0.90
2023-03-24T12:42:12.242Z,0.50
2023-03-24T12:43:12.235Z,1.10
2023-03-24T12:44:12.248Z,0.60
2023-03-24T12:45:12.199Z,0.80
2023-03-24T12:46:12.200Z,0.50
2023-03-24T12:47:12.165Z,0.50
2023-03-24T12:48:12.189Z,0.70
2023-03-24T12:49:12.147Z,0.60
2023-03-24T12:50:12.206Z,0.50
2023-03-24T12:51:12.165Z,0.50
2023-03-24T12:52:12.122Z,0.90